Terminal Aerodrome Forecast
Issued by NWS

Home | Current Version | Previous Version | Text Only | Print | Product List | Glossary On
Versions: 1 2 3 4 5 6 7 8 9 10 11 12 13 14 15 16 17 18
000
FTAK31 PAJN 251100
TAFAWG
TAF
PAWG 251126Z 2512/2612 21015G25KT 6SM -SHRA BR FEW025 BKN030 OVC035
      WS020/24035KT
     FM251500 19010KT 6SM -SHRA BR OVC025
     FM251800 14006KT 6SM -SHRA BR SCT015 OVC025
     FM260300 14005KT P6SM -SHRA OVC015
      AMD LTD TO CLD VIS AND WIND 2512/2515=

USA.gov is the U.S. government's official web portal to all federal, state and local government web resources and services.